Time;durP1;ratioP1;P1;durP2;ratioP2;P2;SDS_P1;SDS_P2;PMS_P1;PMS_P2;Temp;Humidity;BMP_temperature;BMP_pressure;BME280_temperature;BME280_humidity;BME280_pressure;Samples;Min_cycle;Max_cycle;Signal;HPM_P1;HPM_P2
2023/08/18 00:03:23;;;;;;;14.95;7.30;;;15.60;99.90;;;;;;8316753;28;20122;-80
2023/08/18 00:07:24;;;;;;;13.48;8.15;;;15.10;99.90;;;;;;8239996;28;20471;-80
2023/08/18 00:11:24;;;;;;;14.65;7.78;;;14.90;99.90;;;;;;8320305;28;20034;-80
2023/08/18 00:15:25;;;;;;;11.93;7.57;;;14.70;99.90;;;;;;8316146;28;20022;-80
2023/08/18 00:19:26;;;;;;;15.30;8.73;;;14.50;99.90;;;;;;8319848;28;20040;-80
2023/08/18 00:23:26;;;;;;;11.45;7.82;;;14.40;99.90;;;;;;8319302;28;20040;-80
2023/08/18 00:27:27;;;;;;;10.07;7.03;;;14.50;99.90;;;;;;8315894;28;20087;-80
2023/08/18 00:31:27;;;;;;;12.48;8.45;;;14.70;99.90;;;;;;8334758;28;20041;-80
2023/08/18 00:35:28;;;;;;;17.15;9.25;;;14.50;99.90;;;;;;8322053;28;20042;-80
2023/08/18 00:39:28;;;;;;;16.85;9.45;;;14.60;99.90;;;;;;8320461;28;20031;-81
2023/08/18 00:43:29;;;;;;;10.48;7.50;;;14.70;99.90;;;;;;8320214;28;20043;-80
2023/08/18 00:47:30;;;;;;;15.35;10.07;;;14.70;99.90;;;;;;8314849;28;20037;-80
2023/08/18 00:51:34;;;;;;;9.35;7.05;;;14.40;99.90;;;;;;8310733;28;20240;-80
2023/08/18 00:55:35;;;;;;;11.07;7.22;;;14.30;99.90;;;;;;8318619;28;20031;-80
2023/08/18 00:59:36;;;;;;;14.73;8.93;;;14.30;99.90;;;;;;8318303;28;20026;-80
2023/08/18 01:03:36;;;;;;;21.10;10.23;;;14.10;99.90;;;;;;8318505;28;20019;-80
2023/08/18 01:07:37;;;;;;;14.02;9.18;;;14.00;99.90;;;;;;8320138;28;20122;-80
2023/08/18 01:12:02;;;;;;;15.57;9.35;;;13.90;99.90;;;;;;8320406;28;20445;-80
2023/08/18 01:16:05;;;;;;;14.07;7.80;;;13.80;99.90;;;;;;8258075;28;21262;-80
2023/08/18 01:20:08;;;;;;;15.60;10.07;;;13.80;99.90;;;;;;8322561;28;20483;-80
2023/08/18 01:24:08;;;;;;;21.67;10.00;;;13.80;99.90;;;;;;8253749;28;20191;-80
2023/08/18 01:28:09;;;;;;;23.15;8.77;;;13.80;99.90;;;;;;8252301;28;20096;-80
2023/08/18 01:32:11;;;;;;;17.92;9.68;;;13.70;99.90;;;;;;8316400;28;20038;-79
2023/08/18 01:36:18;;;;;;;16.33;9.23;;;13.60;99.90;;;;;;8318005;28;20018;-80
2023/08/18 01:40:21;;;;;;;16.40;10.95;;;13.70;99.90;;;;;;8317266;28;20058;-80
2023/08/18 01:44:21;;;;;;;19.85;10.63;;;13.80;99.90;;;;;;8319775;28;20042;-80
2023/08/18 01:48:22;;;;;;;13.05;8.65;;;13.80;99.90;;;;;;8315816;28;20076;-80
2023/08/18 01:52:22;;;;;;;15.55;8.25;;;13.80;99.90;;;;;;8314426;28;20022;-79
2023/08/18 01:56:23;;;;;;;14.77;8.93;;;13.60;99.90;;;;;;8318957;28;20691;-80
2023/08/18 02:00:23;;;;;;;16.20;9.18;;;13.40;99.90;;;;;;8250805;28;20034;-80
2023/08/18 02:04:24;;;;;;;15.75;10.38;;;13.30;99.90;;;;;;8314045;28;20037;-79
2023/08/18 02:08:24;;;;;;;24.75;12.77;;;13.20;99.90;;;;;;8314369;28;20046;-80
2023/08/18 02:12:25;;;;;;;17.67;10.70;;;13.70;99.90;;;;;;8321862;28;20038;-79
2023/08/18 02:16:26;;;;;;;22.33;11.38;;;13.50;99.90;;;;;;8313886;28;20128;-80
2023/08/18 02:20:26;;;;;;;21.52;10.25;;;13.50;99.90;;;;;;8320346;28;20034;-79
2023/08/18 02:24:27;;;;;;;16.30;9.25;;;13.50;99.90;;;;;;8316274;28;20030;-80
2023/08/18 02:28:27;;;;;;;19.25;10.00;;;13.50;99.90;;;;;;8326924;28;20525;-80
2023/08/18 02:32:28;;;;;;;20.67;11.68;;;13.30;99.90;;;;;;8253849;28;20402;-80
2023/08/18 02:36:28;;;;;;;24.30;9.82;;;13.30;99.90;;;;;;8254105;28;20030;-81
2023/08/18 02:40:29;;;;;;;15.60;10.85;;;13.30;99.90;;;;;;8326534;28;20026;-80
2023/08/18 02:44:29;;;;;;;19.00;10.63;;;13.20;99.90;;;;;;8321249;28;20447;-80
2023/08/18 02:48:30;;;;;;;18.02;9.98;;;13.10;99.90;;;;;;8255508;28;20118;-79
2023/08/18 02:52:31;;;;;;;25.45;11.93;;;13.00;99.90;;;;;;8252834;28;20034;-80
2023/08/18 02:56:32;;;;;;;25.02;13.10;;;13.00;99.90;;;;;;8319940;28;20114;-81
2023/08/18 03:00:35;;;;;;;29.17;14.35;;;13.00;99.90;;;;;;8315006;28;20027;-79
2023/08/18 03:04:35;;;;;;;30.60;14.43;;;12.90;99.90;;;;;;8248004;28;20545;-80
2023/08/18 03:08:36;;;;;;;35.00;14.88;;;12.90;99.90;;;;;;8255810;28;20105;-81
2023/08/18 03:12:37;;;;;;;26.33;13.15;;;12.90;99.90;;;;;;8326952;28;20109;-80
2023/08/18 03:16:37;;;;;;;19.38;10.70;;;13.00;99.90;;;;;;8323936;28;20023;-81
2023/08/18 03:20:38;;;;;;;342.88;14.80;;;13.20;99.90;;;;;;8317163;28;20483;-81
2023/08/18 03:24:38;;;;;;;134.98;9.95;;;13.30;99.90;;;;;;8310729;28;20038;-80
2023/08/18 03:28:39;;;;;;;172.00;11.48;;;13.10;99.90;;;;;;8310919;28;20520;-81
2023/08/18 03:32:39;;;;;;;86.78;9.77;;;13.00;99.90;;;;;;8318649;28;20064;-81
2023/08/18 03:36:40;;;;;;;100.50;9.63;;;13.10;99.90;;;;;;8310514;28;20050;-80
2023/08/18 03:40:40;;;;;;;49.70;9.75;;;13.20;99.90;;;;;;8321498;28;20099;-80
2023/08/18 03:44:41;;;;;;;23.70;8.68;;;12.90;99.90;;;;;;8252918;28;20022;-80
2023/08/18 03:48:41;;;;;;;39.20;9.25;;;12.80;99.90;;;;;;8317655;28;20018;-80
2023/08/18 03:52:42;;;;;;;15.02;9.10;;;12.70;99.90;;;;;;8324449;28;20028;-81
2023/08/18 03:56:42;;;;;;;25.63;12.35;;;12.70;99.90;;;;;;8244960;28;20027;-80
2023/08/18 04:00:43;;;;;;;22.35;11.45;;;12.70;99.90;;;;;;8319639;28;20046;-79
2023/08/18 04:04:43;;;;;;;17.40;10.15;;;12.80;99.90;;;;;;8319804;28;20498;-79
2023/08/18 04:08:44;;;;;;;303.65;16.42;;;12.70;99.90;;;;;;8319749;28;20034;-79
2023/08/18 04:12:45;;;;;;;58.25;9.15;;;12.80;99.90;;;;;;8311610;28;20026;-80
2023/08/18 04:16:45;;;;;;;32.30;8.90;;;12.70;99.90;;;;;;8313307;28;20019;-80
2023/08/18 04:20:46;;;;;;;15.65;9.55;;;12.60;99.90;;;;;;8320337;28;20030;-79
2023/08/18 04:24:46;;;;;;;15.13;9.93;;;12.50;99.90;;;;;;8393231;23;20044;-83
2023/08/18 04:28:47;;;;;;;12.68;8.35;;;12.40;99.90;;;;;;8392353;28;20024;-84
2023/08/18 04:32:49;;;;;;;94.07;10.32;;;12.50;99.90;;;;;;8398941;28;20024;-83
2023/08/18 04:36:49;;;;;;;23.58;8.68;;;12.40;99.90;;;;;;8386813;28;20013;-84
2023/08/18 04:41:00;;;;;;;12.80;8.25;;;12.30;99.90;;;;;;8377737;28;20138;-84
2023/08/18 04:45:01;;;;;;;30.55;9.68;;;12.40;99.90;;;;;;8390463;28;20560;-86
2023/08/18 04:49:03;;;;;;;35.58;8.70;;;12.40;99.90;;;;;;8365684;28;20025;-87
2023/08/18 04:53:04;;;;;;;26.30;8.57;;;12.50;99.90;;;;;;8357945;28;20016;-86
2023/08/18 04:57:07;;;;;;;114.30;10.90;;;12.60;99.90;;;;;;8360564;28;20075;-87
2023/08/18 05:01:08;;;;;;;39.22;8.70;;;12.80;99.90;;;;;;8374684;28;20025;-85
2023/08/18 05:05:12;;;;;;;103.35;10.20;;;12.80;99.90;;;;;;8373288;28;20039;-85
2023/08/18 05:09:13;;;;;;;27.83;9.82;;;12.90;99.90;;;;;;8379262;28;20023;-85
2023/08/18 05:13:13;;;;;;;25.75;8.80;;;13.00;99.90;;;;;;8376484;28;20016;-85
2023/08/18 05:17:14;;;;;;;129.93;8.60;;;13.10;99.90;;;;;;8376457;28;20024;-86
2023/08/18 05:21:14;;;;;;;86.50;6.63;;;13.40;99.90;;;;;;8376319;28;20128;-85
2023/08/18 05:25:15;;;;;;;45.30;7.47;;;13.70;99.90;;;;;;8378627;28;20089;-87
2023/08/18 05:29:16;;;;;;;11.90;7.00;;;13.70;99.90;;;;;;8396758;28;20027;-87
2023/08/18 05:33:17;;;;;;;17.30;8.05;;;13.50;99.90;;;;;;8377444;28;20016;-85
2023/08/18 05:37:18;;;;;;;10.43;7.97;;;13.40;99.90;;;;;;8373049;28;20081;-87
2023/08/18 05:41:18;;;;;;;16.08;8.27;;;13.40;99.90;;;;;;8378219;28;20017;-87
2023/08/18 05:45:19;;;;;;;10.98;8.05;;;13.40;99.90;;;;;;8394640;28;20069;-87
2023/08/18 05:49:19;;;;;;;16.70;9.90;;;13.70;99.90;;;;;;8377950;28;20094;-87
2023/08/18 05:53:20;;;;;;;13.15;8.80;;;13.80;99.90;;;;;;8382959;28;20393;-87
2023/08/18 05:57:20;;;;;;;9.65;7.43;;;14.30;99.90;;;;;;8384552;28;20027;-87
2023/08/18 06:01:21;;;;;;;9.30;7.70;;;14.80;99.90;;;;;;8388548;28;20535;-87
2023/08/18 06:05:23;;;;;;;9.63;7.10;;;15.20;99.90;;;;;;8400886;28;20032;-87
2023/08/18 06:09:24;;;;;;;10.95;6.40;;;15.20;99.90;;;;;;8382218;28;20119;-87
2023/08/18 06:13:24;;;;;;;11.77;5.97;;;15.20;99.90;;;;;;8398627;28;20036;-87
2023/08/18 06:17:25;;;;;;;11.55;6.40;;;15.50;99.90;;;;;;8380494;28;20028;-87
2023/08/18 06:21:25;;;;;;;9.25;6.40;;;15.80;99.90;;;;;;8380607;28;20082;-88
2023/08/18 06:25:26;;;;;;;6.20;5.60;;;16.00;99.90;;;;;;8344875;28;1043084;-87
2023/08/18 06:29:26;;;;;;;8.10;5.65;;;16.40;99.90;;;;;;8382209;28;20028;-87
2023/08/18 06:33:27;;;;;;;5.63;5.00;;;17.20;99.90;;;;;;8381557;28;20016;-86
2023/08/18 06:37:27;;;;;;;8.02;5.07;;;17.80;99.90;;;;;;8380986;28;20024;-86
2023/08/18 06:41:28;;;;;;;6.20;4.50;;;18.50;99.90;;;;;;8381498;28;20094;-86
2023/08/18 06:45:28;;;;;;;6.60;4.25;;;18.50;99.90;;;;;;8380961;28;20493;-86
2023/08/18 06:49:29;;;;;;;6.18;3.65;;;19.40;99.90;;;;;;8381437;28;20116;-86
2023/08/18 06:53:30;;;;;;;6.57;3.75;;;20.30;99.90;;;;;;8398607;28;20021;-86
2023/08/18 06:57:30;;;;;;;7.97;3.70;;;20.50;99.90;;;;;;8380815;28;20484;-87
2023/08/18 07:01:31;;;;;;;4.38;3.50;;;20.70;99.90;;;;;;8381101;28;20035;-86
2023/08/18 07:05:31;;;;;;;4.50;3.65;;;21.50;99.90;;;;;;8380471;28;20025;-86
2023/08/18 07:09:32;;;;;;;6.53;3.35;;;22.20;99.90;;;;;;8380359;28;20025;-86
2023/08/18 07:13:32;;;;;;;4.68;3.13;;;22.80;99.90;;;;;;8379525;28;20477;-87
2023/08/18 07:17:33;;;;;;;4.15;2.95;;;23.20;99.90;;;;;;8400968;28;20021;-87
2023/08/18 07:21:33;;;;;;;5.97;2.88;;;23.50;99.90;;;;;;8382677;28;20108;-86
2023/08/18 07:25:34;;;;;;;5.47;3.20;;;23.80;99.90;;;;;;8381524;28;20060;-87
2023/08/18 07:29:35;;;;;;;4.25;2.53;;;23.90;99.90;;;;;;8382953;28;20485;-86
2023/08/18 07:33:35;;;;;;;4.15;2.90;;;24.50;99.90;;;;;;8383919;28;20029;-87
2023/08/18 07:37:36;;;;;;;5.50;2.90;;;24.90;99.90;;;;;;8381436;28;20040;-86
2023/08/18 07:41:43;;;;;;;3.08;2.53;;;25.00;99.90;;;;;;8380741;28;20557;-86
2023/08/18 07:45:43;;;;;;;4.45;2.65;;;25.30;99.90;;;;;;8380597;28;20025;-86
2023/08/18 07:49:45;;;;;;;7.53;3.00;;;25.40;99.90;;;;;;8379854;28;20032;-86
2023/08/18 07:53:45;;;;;;;4.90;3.00;;;26.00;99.90;;;;;;8378990;28;20029;-86
2023/08/18 07:57:46;;;;;;;4.80;2.60;;;26.40;99.90;;;;;;8378817;28;20023;-86
2023/08/18 08:01:47;;;;;;;3.70;2.67;;;26.10;99.90;;;;;;8395998;28;20013;-86
2023/08/18 08:05:47;;;;;;;4.35;2.60;;;26.40;99.90;;;;;;8377669;28;20021;-85
2023/08/18 08:09:48;;;;;;;3.20;2.80;;;26.40;99.90;;;;;;8377698;28;20028;-85
2023/08/18 08:13:48;;;;;;;4.80;2.97;;;26.60;99.90;;;;;;8376937;28;20013;-85
2023/08/18 08:17:49;;;;;;;4.90;2.50;;;26.70;99.90;;;;;;8377209;28;20032;-84
2023/08/18 08:21:49;;;;;;;4.90;2.60;;;26.70;99.90;;;;;;8377099;28;20396;-84
2023/08/18 08:25:50;;;;;;;5.13;2.67;;;26.60;99.90;;;;;;8376964;28;20043;-83
2023/08/18 08:29:51;;;;;;;3.83;2.40;;;26.70;99.90;;;;;;8376534;28;20034;-83
2023/08/18 08:33:52;;;;;;;4.50;2.00;;;26.70;99.90;;;;;;8376000;28;20074;-83
2023/08/18 08:37:52;;;;;;;3.92;2.45;;;26.90;99.90;;;;;;8375680;28;20059;-83
2023/08/18 08:41:53;;;;;;;4.45;2.00;;;26.90;99.90;;;;;;8376360;28;20029;-84
2023/08/18 08:45:57;;;;;;;5.13;2.13;;;27.10;99.90;;;;;;8376083;28;20050;-83
2023/08/18 08:50:02;;;;;;;4.47;1.98;;;27.30;99.90;;;;;;8393374;28;20385;-83
2023/08/18 08:54:06;;;;;;;2.38;1.83;;;27.00;99.90;;;;;;8375165;28;20050;-82
2023/08/18 08:58:06;;;;;;;2.60;2.10;;;27.50;99.90;;;;;;8392517;28;20024;-82
2023/08/18 09:02:07;;;;;;;2.45;1.80;;;27.40;99.90;;;;;;8392266;28;20020;-82
2023/08/18 09:06:07;;;;;;;2.60;1.90;;;27.20;99.90;;;;;;8391879;28;20051;-82
2023/08/18 09:10:09;;;;;;;2.05;1.70;;;27.50;99.90;;;;;;8374406;28;20431;-82
2023/08/18 09:14:09;;;;;;;3.25;1.98;;;27.60;99.90;;;;;;8374668;28;20017;-81
2023/08/18 09:18:17;;;;;;;3.80;2.17;;;27.50;99.90;;;;;;8392091;28;20017;-83
2023/08/18 09:22:23;;;;;;;2.78;1.80;;;27.80;99.90;;;;;;8374714;28;20066;-82
2023/08/18 09:26:26;;;;;;;4.35;2.00;;;28.10;99.90;;;;;;8370103;28;20488;-82
2023/08/18 09:30:27;;;;;;;4.97;2.03;;;27.70;99.90;;;;;;8392788;28;20067;-82
2023/08/18 09:34:30;;;;;;;3.20;2.10;;;27.70;99.90;;;;;;8392109;28;20025;-82
2023/08/18 09:38:43;;;;;;;3.35;2.00;;;27.80;99.90;;;;;;8373607;28;20082;-82
2023/08/18 09:42:44;;;;;;;2.88;2.58;;;28.20;99.90;;;;;;8374064;28;20024;-83
2023/08/18 09:47:13;;;;;;;4.80;2.47;;;28.30;99.90;;;;;;8392052;28;20027;-82
2023/08/18 09:51:18;;;;;;;4.13;2.33;;;28.90;99.90;;;;;;8371213;28;20040;-82
2023/08/18 09:55:23;;;;;;;3.83;2.42;;;29.10;99.90;;;;;;8373985;28;20017;-82
2023/08/18 09:59:31;;;;;;;2.17;1.65;;;29.30;99.90;;;;;;8387194;28;20052;-81
2023/08/18 10:03:35;;;;;;;2.67;2.03;;;29.50;99.90;;;;;;8371340;28;20032;-82
2023/08/18 10:07:37;;;;;;;5.57;2.60;;;29.60;99.90;;;;;;8372829;28;20044;-83
2023/08/18 10:11:39;;;;;;;3.83;2.50;;;29.80;99.90;;;;;;8373153;28;20024;-81
2023/08/18 10:15:41;;;;;;;4.72;2.42;;;29.60;99.90;;;;;;8373829;28;20024;-82
2023/08/18 10:19:50;;;;;;;4.32;2.78;;;29.60;99.90;;;;;;8373785;28;20130;-83
2023/08/18 10:23:52;;;;;;;6.47;1.80;;;29.40;99.90;;;;;;8391043;28;20020;-82
2023/08/18 10:31:56;;;;;;;3.13;1.90;;;30.00;99.90;;;;;;8264103;28;20076;-78
2023/08/18 10:35:58;;;;;;;4.97;1.58;;;30.60;99.90;;;;;;8310685;28;20019;-78
2023/08/18 10:40:08;;;;;;;4.15;1.90;;;31.30;99.90;;;;;;8307193;28;20019;-78
2023/08/18 10:44:08;;;;;;;2.55;1.67;;;31.90;99.90;;;;;;8238422;28;20109;-79
2023/08/18 10:48:09;;;;;;;4.28;1.80;;;32.50;99.90;;;;;;8307764;28;20037;-78
2023/08/18 10:52:12;;;;;;;3.40;1.75;;;33.20;99.90;;;;;;8308917;28;20050;-78
2023/08/18 10:56:13;;;;;;;3.85;1.80;;;33.70;98.70;;;;;;8307801;28;20088;-79
2023/08/18 11:00:15;;;;;;;2.65;1.60;;;34.10;98.90;;;;;;8310626;28;20034;-78
2023/08/18 11:04:16;;;;;;;3.72;1.67;;;33.90;97.10;;;;;;8242018;28;20018;-78
2023/08/18 11:08:17;;;;;;;5.22;2.00;;;33.70;92.70;;;;;;8304745;28;20073;-79
2023/08/18 11:12:18;;;;;;;4.50;1.95;;;34.20;94.30;;;;;;8243922;28;20084;-79
2023/08/18 11:16:19;;;;;;;2.83;1.80;;;34.60;95.00;;;;;;8303826;28;20075;-78
2023/08/18 11:20:20;;;;;;;3.45;1.77;;;33.70;95.20;;;;;;8237528;28;20030;-79
2023/08/18 11:24:20;;;;;;;3.20;1.80;;;34.20;94.20;;;;;;8299926;28;20414;-79
2023/08/18 11:28:21;;;;;;;4.20;2.10;;;34.80;93.80;;;;;;8240700;28;20038;-78
2023/08/18 11:32:22;;;;;;;5.95;2.00;;;35.10;89.80;;;;;;8240689;28;20022;-79
2023/08/18 11:36:30;;;;;;;3.13;1.90;;;34.90;84.60;;;;;;8306292;28;20033;-79
2023/08/18 11:40:36;;;;;;;2.67;1.95;;;35.70;94.00;;;;;;8306549;28;20033;-79
2023/08/18 11:44:38;;;;;;;3.38;1.83;;;36.60;84.20;;;;;;8299080;28;20475;-79
2023/08/18 11:48:38;;;;;;;3.67;2.00;;;36.10;85.00;;;;;;8231657;28;20022;-79
2023/08/18 11:52:41;;;;;;;7.78;2.10;;;35.90;77.60;;;;;;8244920;28;20027;-79
2023/08/18 11:56:42;;;;;;;4.45;2.20;;;36.70;79.00;;;;;;8240351;28;20035;-79
2023/08/18 12:00:45;;;;;;;5.82;2.20;;;36.30;86.00;;;;;;8239302;28;20428;-78
2023/08/18 12:04:45;;;;;;;3.38;2.05;;;36.10;84.80;;;;;;8294447;28;20494;-78
2023/08/18 12:08:46;;;;;;;4.68;2.45;;;36.40;80.10;;;;;;8280986;28;20029;-79
2023/08/18 12:12:53;;;;;;;3.58;2.25;;;36.70;82.00;;;;;;8242871;28;20455;-79
2023/08/18 12:16:54;;;;;;;4.20;2.30;;;36.20;82.80;;;;;;8290803;28;20018;-79
2023/08/18 12:20:55;;;;;;;3.90;2.00;;;35.80;83.20;;;;;;8247825;28;20109;-79
2023/08/18 12:24:55;;;;;;;7.25;2.10;;;35.40;79.40;;;;;;8250779;28;20399;-79
2023/08/18 12:28:56;;;;;;;4.28;2.00;;;35.90;80.70;;;;;;8295346;28;20026;-79
2023/08/18 12:32:56;;;;;;;6.00;2.08;;;35.90;83.40;;;;;;8321371;28;20019;-79
2023/08/18 12:36:59;;;;;;;4.72;1.88;;;37.40;75.30;;;;;;8247055;28;20090;-79
2023/08/18 12:41:02;;;;;;;2.92;2.25;;;38.30;72.60;;;;;;8248783;28;20048;-79
2023/08/18 12:45:04;;;;;;;3.92;2.20;;;36.90;78.90;;;;;;8246948;28;20028;-79
2023/08/18 12:49:05;;;;;;;2.38;2.10;;;35.00;81.40;;;;;;8320528;28;20057;-79
2023/08/18 12:53:06;;;;;;;5.68;2.15;;;35.40;80.80;;;;;;8245588;28;20011;-79
2023/08/18 12:57:07;;;;;;;4.72;2.20;;;37.70;70.20;;;;;;8249609;28;20029;-78
2023/08/18 13:01:09;;;;;;;5.05;2.10;;;37.10;70.40;;;;;;8312718;28;20034;-78
2023/08/18 13:05:10;;;;;;;6.68;2.10;;;36.90;71.10;;;;;;8309926;28;20383;-79
2023/08/18 13:09:10;;;;;;;4.32;1.98;;;38.00;78.30;;;;;;8307526;28;20121;-77
2023/08/18 13:13:11;;;;;;;4.22;1.90;;;37.10;73.00;;;;;;8231168;28;20367;-79
2023/08/18 13:17:12;;;;;;;5.53;2.25;;;37.40;70.00;;;;;;8240829;28;20109;-79
2023/08/18 13:21:13;;;;;;;4.65;2.20;;;38.70;72.10;;;;;;8239764;28;20045;-79
2023/08/18 13:25:15;;;;;;;5.35;1.98;;;39.00;71.30;;;;;;8319193;28;20041;-80
2023/08/18 13:29:15;;;;;;;2.90;1.77;;;40.00;64.70;;;;;;8309588;28;20030;-80
2023/08/18 13:33:16;;;;;;;4.20;1.90;;;39.00;66.50;;;;;;8245323;28;20501;-79
2023/08/18 13:37:16;;;;;;;2.72;1.80;;;37.90;64.00;;;;;;8316830;28;20026;-78
2023/08/18 13:41:17;;;;;;;4.00;2.03;;;38.50;68.80;;;;;;8247102;28;20478;-79
2023/08/18 13:45:18;;;;;;;6.03;2.08;;;39.80;64.00;;;;;;8249394;28;20083;-78
2023/08/18 13:49:21;;;;;;;6.60;2.00;;;40.10;62.70;;;;;;8313342;28;20041;-79
2023/08/18 13:53:22;;;;;;;3.08;1.80;;;41.30;60.70;;;;;;8303239;28;20045;-80
2023/08/18 13:57:23;;;;;;;5.55;2.38;;;41.80;60.20;;;;;;8301063;28;20027;-80
2023/08/18 14:01:23;;;;;;;4.35;1.88;;;42.60;57.20;;;;;;8272623;28;20072;-79
2023/08/18 14:05:24;;;;;;;7.00;2.10;;;40.70;56.80;;;;;;8291718;28;20558;-79
2023/08/18 14:09:25;;;;;;;3.95;1.95;;;40.90;54.90;;;;;;8298587;28;20241;-79
2023/08/18 14:13:25;;;;;;;2.40;1.48;;;42.10;53.50;;;;;;8239352;28;20080;-79
2023/08/18 14:17:47;;;;;;;19.85;4.75;;;43.00;51.60;;;;;;8244467;28;20387;-79
2023/08/18 14:21:48;;;;;;;17.92;2.85;;;42.40;50.30;;;;;;8244318;28;20030;-79
2023/08/18 14:25:48;;;;;;;13.98;2.38;;;42.20;53.10;;;;;;8240147;28;20090;-79
2023/08/18 14:29:49;;;;;;;4.97;2.00;;;42.10;53.20;;;;;;8244298;28;20030;-79
2023/08/18 14:33:49;;;;;;;3.60;1.92;;;42.70;51.40;;;;;;8308630;28;20258;-80
2023/08/18 14:37:50;;;;;;;4.35;2.00;;;42.70;54.30;;;;;;8308504;28;20555;-80
2023/08/18 14:41:51;;;;;;;3.63;2.10;;;43.30;52.40;;;;;;8236106;28;20050;-79
2023/08/18 14:45:51;;;;;;;4.82;2.20;;;42.80;51.40;;;;;;8306263;28;20112;-79
2023/08/18 14:49:52;;;;;;;4.00;2.20;;;42.20;53.10;;;;;;8313291;28;20027;-79
2023/08/18 14:53:52;;;;;;;6.07;2.13;;;41.20;54.60;;;;;;8311343;28;20070;-79
2023/08/18 14:57:53;;;;;;;5.90;2.08;;;42.60;49.80;;;;;;8319771;28;20104;-80
2023/08/18 15:01:54;;;;;;;3.15;1.95;;;42.80;50.70;;;;;;8246364;28;20155;-80
2023/08/18 15:05:54;;;;;;;4.47;2.00;;;43.30;49.80;;;;;;8306659;28;20023;-78
2023/08/18 15:09:55;;;;;;;5.97;2.03;;;43.20;49.20;;;;;;8246074;28;20056;-80
2023/08/18 15:13:56;;;;;;;5.88;1.92;;;42.60;49.10;;;;;;8317623;28;20030;-80
2023/08/18 15:17:56;;;;;;;4.05;2.05;;;43.00;49.30;;;;;;8245833;28;20027;-79
2023/08/18 15:21:57;;;;;;;6.22;2.28;;;42.80;47.90;;;;;;8297422;28;20117;-78
2023/08/18 15:25:57;;;;;;;5.35;2.10;;;41.90;49.60;;;;;;8253595;28;20395;-79
2023/08/18 15:29:58;;;;;;;4.63;2.10;;;42.00;48.10;;;;;;8305594;28;20556;-79
2023/08/18 15:34:02;;;;;;;3.38;2.15;;;42.60;49.80;;;;;;8312015;28;20031;-80
2023/08/18 15:38:03;;;;;;;4.53;2.03;;;41.80;54.70;;;;;;8310255;28;20054;-79
2023/08/18 15:42:04;;;;;;;3.88;1.85;;;42.30;51.40;;;;;;8244054;28;20491;-80
2023/08/18 15:46:05;;;;;;;5.60;2.20;;;42.30;51.60;;;;;;8325982;28;20050;-79
2023/08/18 15:50:06;;;;;;;6.60;2.10;;;41.50;51.00;;;;;;8243229;28;20025;-80
2023/08/18 15:54:06;;;;;;;6.90;2.28;;;40.50;51.80;;;;;;8235502;28;20066;-79
2023/08/18 15:58:07;;;;;;;5.07;2.10;;;37.70;59.10;;;;;;8233491;28;20034;-79
2023/08/18 16:02:07;;;;;;;3.50;1.73;;;35.20;64.40;;;;;;8306461;28;20022;-79
2023/08/18 16:06:08;;;;;;;4.70;1.90;;;33.20;68.40;;;;;;8246105;28;20037;-78
2023/08/18 16:10:09;;;;;;;5.75;1.90;;;31.70;75.30;;;;;;8320459;28;20027;-80
2023/08/18 16:14:09;;;;;;;6.40;2.00;;;31.00;79.10;;;;;;8299436;28;20027;-80
2023/08/18 16:18:10;;;;;;;5.53;2.00;;;30.70;77.20;;;;;;8269319;28;20045;-79
2023/08/18 16:22:10;;;;;;;5.60;2.10;;;30.30;81.70;;;;;;8311865;28;20026;-79
2023/08/18 16:26:11;;;;;;;9.20;2.13;;;29.90;81.90;;;;;;8329939;22;20499;-80
2023/08/18 16:30:12;;;;;;;5.85;1.83;;;29.80;84.00;;;;;;8328239;28;20037;-80
2023/08/18 16:34:12;;;;;;;5.97;1.90;;;29.60;85.90;;;;;;8296356;28;20022;-79
2023/08/18 16:38:13;;;;;;;7.07;2.58;;;29.70;85.50;;;;;;8296741;28;20038;-80
2023/08/18 16:42:13;;;;;;;7.90;2.00;;;29.80;86.30;;;;;;8279950;28;20054;-80
2023/08/18 16:46:15;;;;;;;8.45;2.22;;;29.60;88.00;;;;;;8274368;28;20027;-80
2023/08/18 16:50:16;;;;;;;6.05;2.03;;;29.40;89.10;;;;;;8276611;28;20511;-80
2023/08/18 16:54:16;;;;;;;6.07;2.40;;;29.00;87.30;;;;;;8268500;28;20114;-80
2023/08/18 16:58:17;;;;;;;4.03;2.25;;;29.00;91.30;;;;;;8202372;28;20035;-80
2023/08/18 17:02:17;;;;;;;5.35;2.20;;;28.70;89.50;;;;;;8203310;28;20110;-80
2023/08/18 17:06:18;;;;;;;4.22;2.20;;;28.40;91.90;;;;;;8208007;28;20376;-80
2023/08/18 17:10:18;;;;;;;6.82;2.28;;;27.90;93.80;;;;;;8200556;28;20023;-80
2023/08/18 17:14:19;;;;;;;5.72;2.05;;;27.40;94.20;;;;;;8269500;28;20031;-80
2023/08/18 17:18:23;;;;;;;6.45;2.38;;;26.90;97.30;;;;;;8269256;28;20487;-80
2023/08/18 17:22:23;;;;;;;7.18;2.20;;;26.50;99.70;;;;;;8200534;28;20027;-80
2023/08/18 17:26:24;;;;;;;7.70;2.20;;;26.20;99.60;;;;;;8270174;28;20100;-80
2023/08/18 17:30:24;;;;;;;5.63;2.28;;;26.00;99.90;;;;;;8268977;28;20118;-80
2023/08/18 17:34:25;;;;;;;4.55;1.95;;;25.70;99.90;;;;;;8269153;28;20022;-80
2023/08/18 17:38:26;;;;;;;9.68;2.47;;;25.40;99.90;;;;;;8272688;28;20125;-80
2023/08/18 17:42:26;;;;;;;6.25;2.13;;;25.30;99.90;;;;;;8199279;28;20041;-80
2023/08/18 17:46:27;;;;;;;3.80;2.20;;;25.20;99.90;;;;;;8279824;28;20406;-80
2023/08/18 17:50:27;;;;;;;4.65;2.20;;;25.10;99.90;;;;;;8268886;28;20033;-80
2023/08/18 17:54:28;;;;;;;3.75;2.05;;;24.90;99.90;;;;;;8208016;28;20015;-80
2023/08/18 17:58:28;;;;;;;7.00;2.30;;;24.70;99.90;;;;;;8275181;28;20520;-80
2023/08/18 18:02:31;;;;;;;6.90;2.33;;;24.60;99.90;;;;;;8281107;28;20023;-80
2023/08/18 18:06:31;;;;;;;5.15;2.10;;;24.20;99.90;;;;;;8281978;28;20042;-80
2023/08/18 18:10:32;;;;;;;5.32;2.45;;;24.20;99.90;;;;;;8284560;28;20027;-80
2023/08/18 18:14:33;;;;;;;8.45;2.90;;;24.10;99.90;;;;;;8207270;28;20061;-80
2023/08/18 18:18:33;;;;;;;8.02;2.53;;;23.90;99.90;;;;;;8281414;28;20495;-80
2023/08/18 18:22:34;;;;;;;15.70;3.10;;;23.80;99.90;;;;;;8273733;28;20391;-80
2023/08/18 18:26:34;;;;;;;7.35;2.70;;;23.50;99.90;;;;;;8209878;28;20038;-80
2023/08/18 18:30:35;;;;;;;8.18;2.80;;;23.20;99.90;;;;;;8277298;28;20551;-80
2023/08/18 18:34:36;;;;;;;4.70;2.90;;;22.90;99.90;;;;;;8275780;28;20019;-80
2023/08/18 18:38:37;;;;;;;5.45;3.38;;;22.60;99.90;;;;;;8280660;28;20398;-80
2023/08/18 18:42:37;;;;;;;7.45;3.45;;;22.30;99.90;;;;;;8279509;28;20031;-80
2023/08/18 18:46:38;;;;;;;5.90;4.88;;;22.10;99.90;;;;;;8214233;28;20027;-80
2023/08/18 18:50:38;;;;;;;8.13;4.45;;;21.80;99.90;;;;;;8273949;28;20125;-78
2023/08/18 18:54:39;;;;;;;8.85;4.40;;;21.80;99.90;;;;;;8287536;28;20023;-79
2023/08/18 18:58:39;;;;;;;10.60;4.30;;;21.70;99.90;;;;;;8279248;28;20030;-80
2023/08/18 19:02:41;;;;;;;7.68;5.10;;;21.60;99.90;;;;;;8280920;28;20034;-79
2023/08/18 19:06:42;;;;;;;7.03;4.28;;;21.50;99.90;;;;;;8282736;28;20041;-79
2023/08/18 19:10:43;;;;;;;9.60;4.53;;;21.40;99.90;;;;;;8287879;28;20068;-80
2023/08/18 19:14:44;;;;;;;6.97;4.10;;;21.20;99.90;;;;;;8221910;28;20037;-80
2023/08/18 19:18:45;;;;;;;15.55;4.43;;;21.30;99.90;;;;;;8279802;28;20444;-80
2023/08/18 19:22:46;;;;;;;5.97;3.70;;;21.20;99.90;;;;;;8285529;28;20030;-80
2023/08/18 19:26:46;;;;;;;5.78;3.55;;;21.00;99.90;;;;;;8202783;28;20643;-80
2023/08/18 19:30:47;;;;;;;7.38;3.33;;;20.80;99.90;;;;;;8203266;28;20062;-80
2023/08/18 19:34:47;;;;;;;6.35;3.50;;;20.70;99.90;;;;;;8279467;28;20023;-80
2023/08/18 19:38:48;;;;;;;6.78;3.65;;;20.60;99.90;;;;;;8275644;28;20114;-81
2023/08/18 19:42:48;;;;;;;9.23;3.35;;;20.50;99.90;;;;;;8278636;28;20081;-80
2023/08/18 19:46:49;;;;;;;6.75;2.95;;;20.40;99.90;;;;;;8280942;28;20031;-80
2023/08/18 19:50:55;;;;;;;5.80;3.53;;;20.40;99.90;;;;;;8282083;28;20019;-80
2023/08/18 19:54:55;;;;;;;9.82;4.78;;;20.20;99.90;;;;;;8206189;28;20310;-80
2023/08/18 19:58:56;;;;;;;8.98;4.70;;;20.20;99.90;;;;;;8269104;28;20372;-80
2023/08/18 20:02:56;;;;;;;7.03;4.85;;;19.90;99.90;;;;;;8212309;28;20030;-80
2023/08/18 20:07:01;;;;;;;7.70;4.20;;;19.90;99.90;;;;;;8207120;28;20042;-80
2023/08/18 20:11:04;;;;;;;8.27;4.07;;;19.90;99.90;;;;;;8204595;28;20058;-79
2023/08/18 20:15:06;;;;;;;5.57;3.60;;;20.00;99.90;;;;;;8280419;28;20027;-80
2023/08/18 20:19:07;;;;;;;9.40;4.05;;;19.90;99.90;;;;;;8216964;28;20030;-79
2023/08/18 20:23:09;;;;;;;7.45;3.78;;;19.70;99.90;;;;;;8291603;28;20039;-80
2023/08/18 20:27:10;;;;;;;6.97;3.60;;;19.60;99.90;;;;;;8293173;28;20077;-80
2023/08/18 20:31:10;;;;;;;6.10;3.50;;;19.50;99.90;;;;;;8217006;28;20085;-79
2023/08/18 20:35:11;;;;;;;8.55;3.83;;;19.30;99.90;;;;;;8266934;28;20028;-80
2023/08/18 20:39:11;;;;;;;6.30;3.78;;;19.10;99.90;;;;;;8276037;28;20027;-79
2023/08/18 20:43:12;;;;;;;10.57;4.05;;;19.00;99.90;;;;;;8279517;28;20402;-79
2023/08/18 20:47:13;;;;;;;8.40;4.85;;;18.90;99.90;;;;;;8210508;28;20034;-80
2023/08/18 20:51:13;;;;;;;8.65;5.55;;;18.90;99.90;;;;;;8210314;28;20030;-80
2023/08/18 20:55:14;;;;;;;8.73;4.70;;;18.80;99.90;;;;;;8297626;28;20022;-80